sensor_id;sensor_type;location;lat;lon;timestamp;temperature;humidity
30694;DHT22;17446;48.022;-1.740;2024-01-11T00:01:27;2.90;99.90
30694;DHT22;17446;48.022;-1.740;2024-01-11T00:03:52;2.90;99.90
30694;DHT22;17446;48.022;-1.740;2024-01-11T00:06:18;2.90;99.90
30694;DHT22;17446;48.022;-1.740;2024-01-11T00:08:43;2.90;99.90
30694;DHT22;17446;48.022;-1.740;2024-01-11T00:11:09;2.90;99.90
30694;DHT22;17446;48.022;-1.740;2024-01-11T00:13:35;2.90;99.90
30694;DHT22;17446;48.022;-1.740;2024-01-11T00:16:00;2.90;99.90
30694;DHT22;17446;48.022;-1.740;2024-01-11T00:18:26;2.90;99.90
30694;DHT22;17446;48.022;-1.740;2024-01-11T00:20:51;2.90;99.90
30694;DHT22;17446;48.022;-1.740;2024-01-11T00:23:17;2.90;99.90
30694;DHT22;17446;48.022;-1.740;2024-01-11T00:25:43;2.80;99.90
30694;DHT22;17446;48.022;-1.740;2024-01-11T00:28:08;2.80;99.90
30694;DHT22;17446;48.022;-1.740;2024-01-11T00:30:34;2.80;99.90
30694;DHT22;17446;48.022;-1.740;2024-01-11T00:32:59;2.70;99.90
30694;DHT22;17446;48.022;-1.740;2024-01-11T00:35:25;2.70;99.90
30694;DHT22;17446;48.022;-1.740;2024-01-11T00:37:50;2.60;99.90
30694;DHT22;17446;48.022;-1.740;2024-01-11T00:40:16;2.50;99.90
30694;DHT22;17446;48.022;-1.740;2024-01-11T00:42:41;2.50;99.90
30694;DHT22;17446;48.022;-1.740;2024-01-11T00:45:07;2.40;99.90
30694;DHT22;17446;48.022;-1.740;2024-01-11T00:47:33;2.40;99.90
30694;DHT22;17446;48.022;-1.740;2024-01-11T00:49:59;2.40;99.90
30694;DHT22;17446;48.022;-1.740;2024-01-11T00:52:24;2.30;99.90
30694;DHT22;17446;48.022;-1.740;2024-01-11T00:54:50;2.30;99.90
30694;DHT22;17446;48.022;-1.740;2024-01-11T00:57:15;2.30;99.90
30694;DHT22;17446;48.022;-1.740;2024-01-11T00:59:41;2.30;99.90
30694;DHT22;17446;48.022;-1.740;2024-01-11T01:02:06;2.30;99.90
30694;DHT22;17446;48.022;-1.740;2024-01-11T01:04:32;2.30;99.90
30694;DHT22;17446;48.022;-1.740;2024-01-11T01:06:58;2.30;99.90
30694;DHT22;17446;48.022;-1.740;2024-01-11T01:09:23;2.30;99.90
30694;DHT22;17446;48.022;-1.740;2024-01-11T01:11:49;2.30;99.90
30694;DHT22;17446;48.022;-1.740;2024-01-11T01:14:15;2.20;99.90
30694;DHT22;17446;48.022;-1.740;2024-01-11T01:16:40;2.20;99.90
30694;DHT22;17446;48.022;-1.740;2024-01-11T01:19:06;2.10;99.90
30694;DHT22;17446;48.022;-1.740;2024-01-11T01:21:32;2.10;99.90
30694;DHT22;17446;48.022;-1.740;2024-01-11T01:23:58;2.10;99.90
30694;DHT22;17446;48.022;-1.740;2024-01-11T01:26:24;2.10;99.90
30694;DHT22;17446;48.022;-1.740;2024-01-11T01:28:49;2.10;99.90
30694;DHT22;17446;48.022;-1.740;2024-01-11T01:31:15;2.00;99.90
30694;DHT22;17446;48.022;-1.740;2024-01-11T01:33:41;2.00;99.90
30694;DHT22;17446;48.022;-1.740;2024-01-11T01:36:10;1.90;99.90
30694;DHT22;17446;48.022;-1.740;2024-01-11T01:38:36;1.90;99.90
30694;DHT22;17446;48.022;-1.740;2024-01-11T01:41:01;1.80;99.90
30694;DHT22;17446;48.022;-1.740;2024-01-11T01:43:28;1.90;99.90
30694;DHT22;17446;48.022;-1.740;2024-01-11T01:45:54;2.00;99.90
30694;DHT22;17446;48.022;-1.740;2024-01-11T01:48:20;1.80;99.90
30694;DHT22;17446;48.022;-1.740;2024-01-11T01:50:47;1.80;99.90
30694;DHT22;17446;48.022;-1.740;2024-01-11T01:53:19;1.80;99.90
30694;DHT22;17446;48.022;-1.740;2024-01-11T01:55:46;1.70;99.90
30694;DHT22;17446;48.022;-1.740;2024-01-11T01:58:14;1.70;99.90
30694;DHT22;17446;48.022;-1.740;2024-01-11T02:00:40;1.60;99.90
30694;DHT22;17446;48.022;-1.740;2024-01-11T02:03:07;1.70;99.90
30694;DHT22;17446;48.022;-1.740;2024-01-11T02:05:33;1.60;99.90
30694;DHT22;17446;48.022;-1.740;2024-01-11T02:08:01;1.60;99.90
30694;DHT22;17446;48.022;-1.740;2024-01-11T02:10:30;1.50;99.90
30694;DHT22;17446;48.022;-1.740;2024-01-11T02:12:58;1.50;99.90
30694;DHT22;17446;48.022;-1.740;2024-01-11T02:15:24;1.40;99.90
30694;DHT22;17446;48.022;-1.740;2024-01-11T02:17:50;1.40;99.90
30694;DHT22;17446;48.022;-1.740;2024-01-11T02:20:15;1.30;99.90
30694;DHT22;17446;48.022;-1.740;2024-01-11T02:22:46;1.30;99.90
30694;DHT22;17446;48.022;-1.740;2024-01-11T02:25:12;1.30;99.90
30694;DHT22;17446;48.022;-1.740;2024-01-11T02:27:48;1.30;99.90
30694;DHT22;17446;48.022;-1.740;2024-01-11T02:30:14;1.20;99.90
30694;DHT22;17446;48.022;-1.740;2024-01-11T02:32:40;1.20;99.90
30694;DHT22;17446;48.022;-1.740;2024-01-11T02:35:06;1.10;99.90
30694;DHT22;17446;48.022;-1.740;2024-01-11T02:37:33;1.10;99.90
30694;DHT22;17446;48.022;-1.740;2024-01-11T02:39:58;1.10;99.90
30694;DHT22;17446;48.022;-1.740;2024-01-11T02:42:24;1.10;99.90
30694;DHT22;17446;48.022;-1.740;2024-01-11T02:44:50;1.00;99.90
30694;DHT22;17446;48.022;-1.740;2024-01-11T02:47:15;1.00;99.90
30694;DHT22;17446;48.022;-1.740;2024-01-11T02:49:41;1.00;99.90
30694;DHT22;17446;48.022;-1.740;2024-01-11T02:52:06;0.90;99.90
30694;DHT22;17446;48.022;-1.740;2024-01-11T02:54:32;0.90;99.90
30694;DHT22;17446;48.022;-1.740;2024-01-11T02:56:57;0.80;99.90
30694;DHT22;17446;48.022;-1.740;2024-01-11T02:59:24;0.90;99.90
30694;DHT22;17446;48.022;-1.740;2024-01-11T03:01:49;0.80;99.90
30694;DHT22;17446;48.022;-1.740;2024-01-11T03:04:15;0.80;99.90
30694;DHT22;17446;48.022;-1.740;2024-01-11T03:06:42;0.80;99.90
30694;DHT22;17446;48.022;-1.740;2024-01-11T03:09:08;0.80;99.90
30694;DHT22;17446;48.022;-1.740;2024-01-11T03:11:33;0.80;99.90
30694;DHT22;17446;48.022;-1.740;2024-01-11T03:13:59;0.80;99.90
30694;DHT22;17446;48.022;-1.740;2024-01-11T03:16:24;0.80;99.90
30694;DHT22;17446;48.022;-1.740;2024-01-11T03:18:50;0.80;99.90
30694;DHT22;17446;48.022;-1.740;2024-01-11T03:21:15;0.80;99.90
30694;DHT22;17446;48.022;-1.740;2024-01-11T03:23:41;0.80;99.90
30694;DHT22;17446;48.022;-1.740;2024-01-11T03:26:17;0.80;99.90
30694;DHT22;17446;48.022;-1.740;2024-01-11T03:28:43;0.80;99.90
30694;DHT22;17446;48.022;-1.740;2024-01-11T03:31:09;0.70;99.90
30694;DHT22;17446;48.022;-1.740;2024-01-11T03:33:35;0.70;99.90
30694;DHT22;17446;48.022;-1.740;2024-01-11T03:36:10;0.70;99.90
30694;DHT22;17446;48.022;-1.740;2024-01-11T03:38:36;0.70;99.90
30694;DHT22;17446;48.022;-1.740;2024-01-11T03:41:06;0.70;99.90
30694;DHT22;17446;48.022;-1.740;2024-01-11T03:43:32;0.80;99.90
30694;DHT22;17446;48.022;-1.740;2024-01-11T03:45:58;0.80;99.90
30694;DHT22;17446;48.022;-1.740;2024-01-11T03:48:24;0.80;99.90
30694;DHT22;17446;48.022;-1.740;2024-01-11T03:50:49;0.80;99.90
30694;DHT22;17446;48.022;-1.740;2024-01-11T03:53:15;0.80;99.90
30694;DHT22;17446;48.022;-1.740;2024-01-11T03:55:40;0.80;99.90
30694;DHT22;17446;48.022;-1.740;2024-01-11T03:58:06;0.80;99.90
30694;DHT22;17446;48.022;-1.740;2024-01-11T04:00:32;0.80;99.90
30694;DHT22;17446;48.022;-1.740;2024-01-11T04:02:58;0.80;99.90
30694;DHT22;17446;48.022;-1.740;2024-01-11T04:05:24;0.80;99.90
30694;DHT22;17446;48.022;-1.740;2024-01-11T04:07:50;0.80;99.90
30694;DHT22;17446;48.022;-1.740;2024-01-11T04:10:17;0.80;99.90
30694;DHT22;17446;48.022;-1.740;2024-01-11T04:12:43;0.90;99.90
30694;DHT22;17446;48.022;-1.740;2024-01-11T04:15:11;0.90;99.90
30694;DHT22;17446;48.022;-1.740;2024-01-11T04:17:38;0.90;99.90
30694;DHT22;17446;48.022;-1.740;2024-01-11T04:20:04;0.90;99.90
30694;DHT22;17446;48.022;-1.740;2024-01-11T04:22:30;1.00;99.90
30694;DHT22;17446;48.022;-1.740;2024-01-11T04:24:56;1.00;99.90
30694;DHT22;17446;48.022;-1.740;2024-01-11T04:27:21;1.00;99.90
30694;DHT22;17446;48.022;-1.740;2024-01-11T04:29:47;1.00;99.90
30694;DHT22;17446;48.022;-1.740;2024-01-11T04:32:13;1.00;99.90
30694;DHT22;17446;48.022;-1.740;2024-01-11T04:34:38;1.10;99.90
30694;DHT22;17446;48.022;-1.740;2024-01-11T04:37:04;1.10;99.90
30694;DHT22;17446;48.022;-1.740;2024-01-11T04:39:29;1.10;99.90
30694;DHT22;17446;48.022;-1.740;2024-01-11T04:41:56;1.10;99.90
30694;DHT22;17446;48.022;-1.740;2024-01-11T04:44:21;1.20;99.90
30694;DHT22;17446;48.022;-1.740;2024-01-11T04:46:47;1.20;99.90
30694;DHT22;17446;48.022;-1.740;2024-01-11T04:49:13;1.20;99.90
30694;DHT22;17446;48.022;-1.740;2024-01-11T04:51:38;1.30;99.90
30694;DHT22;17446;48.022;-1.740;2024-01-11T04:54:04;1.30;99.90
30694;DHT22;17446;48.022;-1.740;2024-01-11T04:56:30;1.40;99.90
30694;DHT22;17446;48.022;-1.740;2024-01-11T04:58:55;1.40;99.90
30694;DHT22;17446;48.022;-1.740;2024-01-11T05:01:21;1.50;99.90
30694;DHT22;17446;48.022;-1.740;2024-01-11T05:03:47;1.50;99.90
30694;DHT22;17446;48.022;-1.740;2024-01-11T05:06:20;1.50;99.90
30694;DHT22;17446;48.022;-1.740;2024-01-11T05:08:47;1.60;99.90
30694;DHT22;17446;48.022;-1.740;2024-01-11T05:11:21;1.50;99.90
30694;DHT22;17446;48.022;-1.740;2024-01-11T05:13:47;1.50;99.90
30694;DHT22;17446;48.022;-1.740;2024-01-11T05:16:29;1.60;99.90
30694;DHT22;17446;48.022;-1.740;2024-01-11T05:18:57;1.50;99.90
30694;DHT22;17446;48.022;-1.740;2024-01-11T05:21:23;1.50;99.90
30694;DHT22;17446;48.022;-1.740;2024-01-11T05:23:49;1.50;99.90
30694;DHT22;17446;48.022;-1.740;2024-01-11T05:26:15;1.50;99.90
30694;DHT22;17446;48.022;-1.740;2024-01-11T05:28:41;1.40;99.90
30694;DHT22;17446;48.022;-1.740;2024-01-11T05:31:11;1.40;99.90
30694;DHT22;17446;48.022;-1.740;2024-01-11T05:33:38;1.40;99.90
30694;DHT22;17446;48.022;-1.740;2024-01-11T05:36:04;1.30;99.90
30694;DHT22;17446;48.022;-1.740;2024-01-11T05:38:29;1.30;99.90
30694;DHT22;17446;48.022;-1.740;2024-01-11T05:40:55;1.30;99.90
30694;DHT22;17446;48.022;-1.740;2024-01-11T05:43:22;1.20;99.90
30694;DHT22;17446;48.022;-1.740;2024-01-11T05:45:48;1.20;99.90
30694;DHT22;17446;48.022;-1.740;2024-01-11T05:48:15;1.20;99.90
30694;DHT22;17446;48.022;-1.740;2024-01-11T05:50:41;1.20;99.90
30694;DHT22;17446;48.022;-1.740;2024-01-11T05:53:06;1.30;99.90
30694;DHT22;17446;48.022;-1.740;2024-01-11T05:55:32;1.30;99.90
30694;DHT22;17446;48.022;-1.740;2024-01-11T05:57:58;1.30;99.90
30694;DHT22;17446;48.022;-1.740;2024-01-11T06:00:23;1.30;99.90
30694;DHT22;17446;48.022;-1.740;2024-01-11T06:02:49;1.40;99.90
30694;DHT22;17446;48.022;-1.740;2024-01-11T06:05:14;1.40;99.90
30694;DHT22;17446;48.022;-1.740;2024-01-11T06:07:40;1.40;99.90
30694;DHT22;17446;48.022;-1.740;2024-01-11T06:10:07;1.50;99.90
30694;DHT22;17446;48.022;-1.740;2024-01-11T06:12:34;1.40;99.90
30694;DHT22;17446;48.022;-1.740;2024-01-11T06:15:01;1.50;99.90
30694;DHT22;17446;48.022;-1.740;2024-01-11T06:17:26;1.50;99.90
30694;DHT22;17446;48.022;-1.740;2024-01-11T06:19:52;1.50;99.90
30694;DHT22;17446;48.022;-1.740;2024-01-11T06:22:18;1.50;99.90
30694;DHT22;17446;48.022;-1.740;2024-01-11T06:24:44;1.50;99.90
30694;DHT22;17446;48.022;-1.740;2024-01-11T06:27:09;1.60;99.90
30694;DHT22;17446;48.022;-1.740;2024-01-11T06:29:35;1.60;99.90
30694;DHT22;17446;48.022;-1.740;2024-01-11T06:32:01;1.60;99.90
30694;DHT22;17446;48.022;-1.740;2024-01-11T06:34:27;1.60;99.90
30694;DHT22;17446;48.022;-1.740;2024-01-11T06:36:54;1.60;99.90
30694;DHT22;17446;48.022;-1.740;2024-01-11T06:39:20;1.70;99.90
30694;DHT22;17446;48.022;-1.740;2024-01-11T06:41:46;1.70;99.90
30694;DHT22;17446;48.022;-1.740;2024-01-11T06:44:12;1.60;99.90
30694;DHT22;17446;48.022;-1.740;2024-01-11T06:46:37;1.60;99.90
30694;DHT22;17446;48.022;-1.740;2024-01-11T06:49:07;1.60;99.90
30694;DHT22;17446;48.022;-1.740;2024-01-11T06:51:32;1.60;99.90
30694;DHT22;17446;48.022;-1.740;2024-01-11T06:53:59;1.60;99.90
30694;DHT22;17446;48.022;-1.740;2024-01-11T06:56:25;1.60;99.90
30694;DHT22;17446;48.022;-1.740;2024-01-11T06:58:51;1.60;99.90
30694;DHT22;17446;48.022;-1.740;2024-01-11T07:01:17;1.60;99.90
30694;DHT22;17446;48.022;-1.740;2024-01-11T07:03:42;1.70;99.90
30694;DHT22;17446;48.022;-1.740;2024-01-11T07:06:08;1.70;99.90
30694;DHT22;17446;48.022;-1.740;2024-01-11T07:08:34;1.70;99.90
30694;DHT22;17446;48.022;-1.740;2024-01-11T07:11:01;1.70;99.90
30694;DHT22;17446;48.022;-1.740;2024-01-11T07:13:30;1.70;99.90
30694;DHT22;17446;48.022;-1.740;2024-01-11T07:15:56;1.70;99.90
30694;DHT22;17446;48.022;-1.740;2024-01-11T07:18:23;1.70;99.90
30694;DHT22;17446;48.022;-1.740;2024-01-11T07:20:50;1.70;99.90
30694;DHT22;17446;48.022;-1.740;2024-01-11T07:23:16;1.80;99.90
30694;DHT22;17446;48.022;-1.740;2024-01-11T07:25:42;1.80;99.90
30694;DHT22;17446;48.022;-1.740;2024-01-11T07:28:07;1.80;99.90
30694;DHT22;17446;48.022;-1.740;2024-01-11T07:30:34;1.80;99.90
30694;DHT22;17446;48.022;-1.740;2024-01-11T07:32:59;1.80;99.90
30694;DHT22;17446;48.022;-1.740;2024-01-11T07:35:25;1.80;99.90
30694;DHT22;17446;48.022;-1.740;2024-01-11T07:37:50;1.90;99.90
30694;DHT22;17446;48.022;-1.740;2024-01-11T07:40:16;1.90;99.90
30694;DHT22;17446;48.022;-1.740;2024-01-11T07:42:42;1.90;99.90
30694;DHT22;17446;48.022;-1.740;2024-01-11T07:45:08;1.90;99.90
30694;DHT22;17446;48.022;-1.740;2024-01-11T07:47:37;1.90;99.90
30694;DHT22;17446;48.022;-1.740;2024-01-11T07:50:05;1.90;99.90
30694;DHT22;17446;48.022;-1.740;2024-01-11T07:52:35;1.90;99.90
30694;DHT22;17446;48.022;-1.740;2024-01-11T07:55:02;1.90;99.90
30694;DHT22;17446;48.022;-1.740;2024-01-11T07:57:33;1.90;99.90
30694;DHT22;17446;48.022;-1.740;2024-01-11T07:59:59;1.90;99.90
30694;DHT22;17446;48.022;-1.740;2024-01-11T08:02:25;1.90;99.90
30694;DHT22;17446;48.022;-1.740;2024-01-11T08:04:51;2.00;99.90
30694;DHT22;17446;48.022;-1.740;2024-01-11T08:07:16;2.00;99.90
30694;DHT22;17446;48.022;-1.740;2024-01-11T08:09:42;2.10;99.90
30694;DHT22;17446;48.022;-1.740;2024-01-11T08:12:11;2.10;99.90
30694;DHT22;17446;48.022;-1.740;2024-01-11T08:14:37;2.20;99.90
30694;DHT22;17446;48.022;-1.740;2024-01-11T08:17:02;2.20;99.90
30694;DHT22;17446;48.022;-1.740;2024-01-11T08:19:32;2.20;99.90
30694;DHT22;17446;48.022;-1.740;2024-01-11T08:21:58;2.20;99.90
30694;DHT22;17446;48.022;-1.740;2024-01-11T08:24:24;2.30;99.90
30694;DHT22;17446;48.022;-1.740;2024-01-11T08:26:50;2.30;99.90
30694;DHT22;17446;48.022;-1.740;2024-01-11T08:29:16;2.30;99.90
30694;DHT22;17446;48.022;-1.740;2024-01-11T08:31:44;2.30;99.90
30694;DHT22;17446;48.022;-1.740;2024-01-11T08:34:10;2.30;99.90
30694;DHT22;17446;48.022;-1.740;2024-01-11T08:36:36;2.30;99.90
30694;DHT22;17446;48.022;-1.740;2024-01-11T08:39:04;2.30;99.90
30694;DHT22;17446;48.022;-1.740;2024-01-11T08:41:34;2.40;99.90
30694;DHT22;17446;48.022;-1.740;2024-01-11T08:44:01;2.30;99.90
30694;DHT22;17446;48.022;-1.740;2024-01-11T08:46:28;2.30;99.90
30694;DHT22;17446;48.022;-1.740;2024-01-11T08:48:56;2.30;99.90
30694;DHT22;17446;48.022;-1.740;2024-01-11T08:51:22;2.40;99.90
30694;DHT22;17446;48.022;-1.740;2024-01-11T08:53:48;2.30;99.90
30694;DHT22;17446;48.022;-1.740;2024-01-11T08:56:13;2.40;99.90
30694;DHT22;17446;48.022;-1.740;2024-01-11T08:58:41;2.40;99.90
30694;DHT22;17446;48.022;-1.740;2024-01-11T09:01:07;2.40;99.90
30694;DHT22;17446;48.022;-1.740;2024-01-11T09:03:34;2.40;99.90
30694;DHT22;17446;48.022;-1.740;2024-01-11T09:06:01;2.40;99.90
30694;DHT22;17446;48.022;-1.740;2024-01-11T09:08:27;2.50;99.90
30694;DHT22;17446;48.022;-1.740;2024-01-11T09:10:53;2.50;99.90
30694;DHT22;17446;48.022;-1.740;2024-01-11T09:13:19;2.50;99.90
30694;DHT22;17446;48.022;-1.740;2024-01-11T09:15:44;2.50;99.90
30694;DHT22;17446;48.022;-1.740;2024-01-11T09:18:10;2.50;99.90
30694;DHT22;17446;48.022;-1.740;2024-01-11T09:20:36;2.50;99.90
30694;DHT22;17446;48.022;-1.740;2024-01-11T09:23:01;2.60;99.90
30694;DHT22;17446;48.022;-1.740;2024-01-11T09:25:29;2.70;99.90
30694;DHT22;17446;48.022;-1.740;2024-01-11T09:27:55;2.70;99.90
30694;DHT22;17446;48.022;-1.740;2024-01-11T09:30:21;2.80;99.90
30694;DHT22;17446;48.022;-1.740;2024-01-11T09:32:46;2.90;99.90
30694;DHT22;17446;48.022;-1.740;2024-01-11T09:35:13;2.90;99.90
30694;DHT22;17446;48.022;-1.740;2024-01-11T09:37:38;3.10;99.90
30694;DHT22;17446;48.022;-1.740;2024-01-11T09:40:05;3.10;99.90
30694;DHT22;17446;48.022;-1.740;2024-01-11T09:42:36;3.20;99.90
30694;DHT22;17446;48.022;-1.740;2024-01-11T09:45:05;3.40;99.90
30694;DHT22;17446;48.022;-1.740;2024-01-11T09:47:33;3.40;99.90
30694;DHT22;17446;48.022;-1.740;2024-01-11T09:50:05;3.50;99.90
30694;DHT22;17446;48.022;-1.740;2024-01-11T09:52:31;3.60;99.90
30694;DHT22;17446;48.022;-1.740;2024-01-11T09:54:58;3.70;99.90
30694;DHT22;17446;48.022;-1.740;2024-01-11T09:57:30;3.80;99.90
30694;DHT22;17446;48.022;-1.740;2024-01-11T09:59:56;3.90;99.90
30694;DHT22;17446;48.022;-1.740;2024-01-11T10:02:26;3.90;99.90
30694;DHT22;17446;48.022;-1.740;2024-01-11T10:04:54;4.00;99.90
30694;DHT22;17446;48.022;-1.740;2024-01-11T10:07:23;4.00;99.90
30694;DHT22;17446;48.022;-1.740;2024-01-11T10:09:50;4.10;99.90
30694;DHT22;17446;48.022;-1.740;2024-01-11T10:12:20;4.10;99.90
30694;DHT22;17446;48.022;-1.740;2024-01-11T10:14:48;4.10;99.90
30694;DHT22;17446;48.022;-1.740;2024-01-11T10:17:14;4.10;99.90
30694;DHT22;17446;48.022;-1.740;2024-01-11T10:19:40;4.00;99.90
30694;DHT22;17446;48.022;-1.740;2024-01-11T10:22:05;4.00;99.90
30694;DHT22;17446;48.022;-1.740;2024-01-11T10:24:32;4.00;99.90
30694;DHT22;17446;48.022;-1.740;2024-01-11T10:26:58;3.90;99.90
30694;DHT22;17446;48.022;-1.740;2024-01-11T10:29:30;3.90;99.90
30694;DHT22;17446;48.022;-1.740;2024-01-11T10:31:56;4.00;99.90
30694;DHT22;17446;48.022;-1.740;2024-01-11T10:34:23;4.00;99.90
30694;DHT22;17446;48.022;-1.740;2024-01-11T10:36:50;4.00;99.90
30694;DHT22;17446;48.022;-1.740;2024-01-11T10:39:17;4.00;99.90
30694;DHT22;17446;48.022;-1.740;2024-01-11T10:41:51;4.00;99.90
30694;DHT22;17446;48.022;-1.740;2024-01-11T10:44:19;4.00;99.90
30694;DHT22;17446;48.022;-1.740;2024-01-11T10:46:49;4.10;99.90
30694;DHT22;17446;48.022;-1.740;2024-01-11T10:49:17;4.10;99.90
30694;DHT22;17446;48.022;-1.740;2024-01-11T10:51:53;4.10;99.90
30694;DHT22;17446;48.022;-1.740;2024-01-11T10:54:21;4.10;99.90
30694;DHT22;17446;48.022;-1.740;2024-01-11T10:56:48;4.20;99.90
30694;DHT22;17446;48.022;-1.740;2024-01-11T10:59:16;4.20;99.90
30694;DHT22;17446;48.022;-1.740;2024-01-11T11:01:44;4.30;99.90
30694;DHT22;17446;48.022;-1.740;2024-01-11T11:04:10;4.30;99.90
30694;DHT22;17446;48.022;-1.740;2024-01-11T11:06:38;4.30;99.90
30694;DHT22;17446;48.022;-1.740;2024-01-11T11:09:04;4.30;99.90
30694;DHT22;17446;48.022;-1.740;2024-01-11T11:11:31;4.30;99.90
30694;DHT22;17446;48.022;-1.740;2024-01-11T11:13:59;4.30;99.90
30694;DHT22;17446;48.022;-1.740;2024-01-11T11:16:26;4.40;99.90
30694;DHT22;17446;48.022;-1.740;2024-01-11T11:18:54;4.40;99.90
30694;DHT22;17446;48.022;-1.740;2024-01-11T11:21:21;4.50;99.90
30694;DHT22;17446;48.022;-1.740;2024-01-11T11:23:47;4.50;99.90
30694;DHT22;17446;48.022;-1.740;2024-01-11T11:26:15;4.50;99.90
30694;DHT22;17446;48.022;-1.740;2024-01-11T11:28:42;4.60;99.90
30694;DHT22;17446;48.022;-1.740;2024-01-11T11:31:08;4.60;99.90
30694;DHT22;17446;48.022;-1.740;2024-01-11T11:33:36;4.60;99.90
30694;DHT22;17446;48.022;-1.740;2024-01-11T11:36:03;4.70;99.90
30694;DHT22;17446;48.022;-1.740;2024-01-11T11:38:30;4.70;99.90
30694;DHT22;17446;48.022;-1.740;2024-01-11T11:40:57;4.70;99.90
30694;DHT22;17446;48.022;-1.740;2024-01-11T11:43:25;4.70;99.90
30694;DHT22;17446;48.022;-1.740;2024-01-11T11:45:52;4.70;99.90
30694;DHT22;17446;48.022;-1.740;2024-01-11T11:51:11;4.80;99.90
30694;DHT22;17446;48.022;-1.740;2024-01-11T11:53:38;4.90;99.90
30694;DHT22;17446;48.022;-1.740;2024-01-11T11:56:04;5.00;99.90
30694;DHT22;17446;48.022;-1.740;2024-01-11T11:58:30;5.00;99.90
30694;DHT22;17446;48.022;-1.740;2024-01-11T12:00:57;5.00;99.90
30694;DHT22;17446;48.022;-1.740;2024-01-11T12:03:29;5.00;99.90
30694;DHT22;17446;48.022;-1.740;2024-01-11T12:05:59;5.10;99.90
30694;DHT22;17446;48.022;-1.740;2024-01-11T12:08:25;5.20;99.90
30694;DHT22;17446;48.022;-1.740;2024-01-11T12:10:52;5.20;99.90
30694;DHT22;17446;48.022;-1.740;2024-01-11T12:13:20;5.30;99.90
30694;DHT22;17446;48.022;-1.740;2024-01-11T12:15:46;5.40;99.90
30694;DHT22;17446;48.022;-1.740;2024-01-11T12:18:12;5.40;99.90
30694;DHT22;17446;48.022;-1.740;2024-01-11T12:20:38;5.40;99.90
30694;DHT22;17446;48.022;-1.740;2024-01-11T12:23:03;5.50;99.90
30694;DHT22;17446;48.022;-1.740;2024-01-11T12:25:30;5.50;99.90
30694;DHT22;17446;48.022;-1.740;2024-01-11T12:27:56;5.50;99.90
30694;DHT22;17446;48.022;-1.740;2024-01-11T12:30:23;5.60;99.90
30694;DHT22;17446;48.022;-1.740;2024-01-11T12:32:49;5.70;99.90
30694;DHT22;17446;48.022;-1.740;2024-01-11T12:35:15;5.70;99.90
30694;DHT22;17446;48.022;-1.740;2024-01-11T12:37:51;5.80;99.90
30694;DHT22;17446;48.022;-1.740;2024-01-11T12:40:17;5.90;99.90
30694;DHT22;17446;48.022;-1.740;2024-01-11T12:42:43;5.90;99.90
30694;DHT22;17446;48.022;-1.740;2024-01-11T12:45:09;6.00;99.90
30694;DHT22;17446;48.022;-1.740;2024-01-11T12:47:35;6.10;99.90
30694;DHT22;17446;48.022;-1.740;2024-01-11T12:50:00;6.10;99.90
30694;DHT22;17446;48.022;-1.740;2024-01-11T12:52:26;6.20;99.90
30694;DHT22;17446;48.022;-1.740;2024-01-11T12:54:53;6.20;99.90
30694;DHT22;17446;48.022;-1.740;2024-01-11T12:57:19;6.30;99.90
30694;DHT22;17446;48.022;-1.740;2024-01-11T12:59:45;6.30;99.90
30694;DHT22;17446;48.022;-1.740;2024-01-11T13:02:11;6.30;99.90
30694;DHT22;17446;48.022;-1.740;2024-01-11T13:04:40;6.40;99.90
30694;DHT22;17446;48.022;-1.740;2024-01-11T13:07:06;6.50;99.90
30694;DHT22;17446;48.022;-1.740;2024-01-11T13:09:32;6.60;99.90
30694;DHT22;17446;48.022;-1.740;2024-01-11T13:11:59;6.60;99.90
30694;DHT22;17446;48.022;-1.740;2024-01-11T13:14:25;6.60;99.90
30694;DHT22;17446;48.022;-1.740;2024-01-11T13:16:51;6.60;99.90
30694;DHT22;17446;48.022;-1.740;2024-01-11T13:19:16;6.60;99.90
30694;DHT22;17446;48.022;-1.740;2024-01-11T13:21:42;6.70;99.90
30694;DHT22;17446;48.022;-1.740;2024-01-11T13:24:08;6.70;99.90
30694;DHT22;17446;48.022;-1.740;2024-01-11T13:26:35;6.80;99.90
30694;DHT22;17446;48.022;-1.740;2024-01-11T13:29:02;6.80;99.90
30694;DHT22;17446;48.022;-1.740;2024-01-11T13:31:28;6.80;99.90
30694;DHT22;17446;48.022;-1.740;2024-01-11T13:33:53;6.90;99.90
30694;DHT22;17446;48.022;-1.740;2024-01-11T13:36:22;6.90;99.90
30694;DHT22;17446;48.022;-1.740;2024-01-11T13:38:48;6.90;99.90
30694;DHT22;17446;48.022;-1.740;2024-01-11T13:41:14;6.90;99.90
30694;DHT22;17446;48.022;-1.740;2024-01-11T13:43:41;7.00;99.90
30694;DHT22;17446;48.022;-1.740;2024-01-11T13:46:07;7.00;99.90
30694;DHT22;17446;48.022;-1.740;2024-01-11T13:48:32;7.00;99.90
30694;DHT22;17446;48.022;-1.740;2024-01-11T13:50:59;7.00;99.90
30694;DHT22;17446;48.022;-1.740;2024-01-11T13:53:25;7.00;99.90
30694;DHT22;17446;48.022;-1.740;2024-01-11T13:55:51;7.10;99.90
30694;DHT22;17446;48.022;-1.740;2024-01-11T13:58:17;7.10;99.90
30694;DHT22;17446;48.022;-1.740;2024-01-11T14:00:44;7.10;99.90
30694;DHT22;17446;48.022;-1.740;2024-01-11T14:03:09;7.10;99.90
30694;DHT22;17446;48.022;-1.740;2024-01-11T14:05:36;7.10;99.90
30694;DHT22;17446;48.022;-1.740;2024-01-11T14:08:03;7.10;99.90
30694;DHT22;17446;48.022;-1.740;2024-01-11T14:10:31;7.10;99.90
30694;DHT22;17446;48.022;-1.740;2024-01-11T14:12:59;7.10;99.90
30694;DHT22;17446;48.022;-1.740;2024-01-11T14:15:25;7.10;99.90
30694;DHT22;17446;48.022;-1.740;2024-01-11T14:17:51;7.10;99.90
30694;DHT22;17446;48.022;-1.740;2024-01-11T14:20:17;7.10;99.90
30694;DHT22;17446;48.022;-1.740;2024-01-11T14:22:44;7.10;99.90
30694;DHT22;17446;48.022;-1.740;2024-01-11T14:25:15;7.10;99.90
30694;DHT22;17446;48.022;-1.740;2024-01-11T14:27:41;7.00;99.90
30694;DHT22;17446;48.022;-1.740;2024-01-11T14:30:07;7.00;99.90
30694;DHT22;17446;48.022;-1.740;2024-01-11T14:32:33;7.00;99.90
30694;DHT22;17446;48.022;-1.740;2024-01-11T14:34:58;7.00;99.90
30694;DHT22;17446;48.022;-1.740;2024-01-11T14:37:28;7.00;99.90
30694;DHT22;17446;48.022;-1.740;2024-01-11T14:39:54;7.00;99.90
30694;DHT22;17446;48.022;-1.740;2024-01-11T14:42:20;7.00;99.90
30694;DHT22;17446;48.022;-1.740;2024-01-11T14:44:45;7.00;99.90
30694;DHT22;17446;48.022;-1.740;2024-01-11T14:47:11;6.90;99.90
30694;DHT22;17446;48.022;-1.740;2024-01-11T14:49:37;6.90;99.90
30694;DHT22;17446;48.022;-1.740;2024-01-11T14:52:02;6.80;99.90
30694;DHT22;17446;48.022;-1.740;2024-01-11T14:54:28;6.90;99.90
30694;DHT22;17446;48.022;-1.740;2024-01-11T14:56:54;6.90;99.90
30694;DHT22;17446;48.022;-1.740;2024-01-11T14:59:19;6.90;99.90
30694;DHT22;17446;48.022;-1.740;2024-01-11T15:01:45;6.90;99.90
30694;DHT22;17446;48.022;-1.740;2024-01-11T15:04:11;6.90;99.90
30694;DHT22;17446;48.022;-1.740;2024-01-11T15:06:37;6.90;99.90
30694;DHT22;17446;48.022;-1.740;2024-01-11T15:09:02;6.80;99.90
30694;DHT22;17446;48.022;-1.740;2024-01-11T15:11:28;6.90;99.90
30694;DHT22;17446;48.022;-1.740;2024-01-11T15:13:54;6.80;99.90
30694;DHT22;17446;48.022;-1.740;2024-01-11T15:16:20;6.80;99.90
30694;DHT22;17446;48.022;-1.740;2024-01-11T15:18:46;6.80;99.90
30694;DHT22;17446;48.022;-1.740;2024-01-11T15:21:12;6.80;99.90
30694;DHT22;17446;48.022;-1.740;2024-01-11T15:23:37;6.80;99.90
30694;DHT22;17446;48.022;-1.740;2024-01-11T15:26:03;6.70;99.90
30694;DHT22;17446;48.022;-1.740;2024-01-11T15:28:29;6.80;99.90